sensor_id;sensor_type;location;lat;lon;timestamp;P1;durP1;ratioP1;P2;durP2;ratioP2
823;SDS011;373;49.342;8.146;2023-04-05T00:00:02;2.90;;;2.45;;
823;SDS011;373;49.342;8.146;2023-04-05T00:02:35;4.72;;;2.40;;
823;SDS011;373;49.342;8.146;2023-04-05T00:05:05;2.70;;;2.35;;
823;SDS011;373;49.342;8.146;2023-04-05T00:07:33;3.47;;;2.97;;
823;SDS011;373;49.342;8.146;2023-04-05T00:10:00;3.83;;;3.10;;
823;SDS011;373;49.342;8.146;2023-04-05T00:12:28;3.00;;;2.53;;
823;SDS011;373;49.342;8.146;2023-04-05T00:14:55;3.63;;;2.80;;
823;SDS011;373;49.342;8.146;2023-04-05T00:17:22;3.60;;;2.28;;
823;SDS011;373;49.342;8.146;2023-04-05T00:19:50;5.30;;;3.13;;
823;SDS011;373;49.342;8.146;2023-04-05T00:22:21;3.38;;;3.08;;
823;SDS011;373;49.342;8.146;2023-04-05T00:24:50;2.58;;;2.20;;
823;SDS011;373;49.342;8.146;2023-04-05T00:27:17;2.45;;;2.25;;
823;SDS011;373;49.342;8.146;2023-04-05T00:29:46;3.22;;;2.85;;
823;SDS011;373;49.342;8.146;2023-04-05T00:32:13;2.85;;;2.60;;
823;SDS011;373;49.342;8.146;2023-04-05T00:34:40;3.42;;;2.33;;
823;SDS011;373;49.342;8.146;2023-04-05T00:37:07;3.47;;;2.70;;
823;SDS011;373;49.342;8.146;2023-04-05T00:39:34;3.25;;;2.40;;
823;SDS011;373;49.342;8.146;2023-04-05T00:42:01;2.85;;;2.50;;
823;SDS011;373;49.342;8.146;2023-04-05T00:44:28;3.28;;;2.20;;
823;SDS011;373;49.342;8.146;2023-04-05T00:47:00;4.38;;;2.53;;
823;SDS011;373;49.342;8.146;2023-04-05T00:49:27;3.35;;;2.90;;
823;SDS011;373;49.342;8.146;2023-04-05T00:51:55;3.45;;;2.22;;
823;SDS011;373;49.342;8.146;2023-04-05T00:54:22;2.67;;;2.45;;
823;SDS011;373;49.342;8.146;2023-04-05T00:56:51;2.95;;;2.22;;
823;SDS011;373;49.342;8.146;2023-04-05T00:59:18;2.88;;;2.40;;
823;SDS011;373;49.342;8.146;2023-04-05T01:01:45;4.38;;;2.83;;
823;SDS011;373;49.342;8.146;2023-04-05T01:04:20;2.30;;;2.10;;
823;SDS011;373;49.342;8.146;2023-04-05T01:06:51;3.22;;;2.42;;
823;SDS011;373;49.342;8.146;2023-04-05T01:09:32;4.53;;;2.75;;
823;SDS011;373;49.342;8.146;2023-04-05T01:12:08;3.17;;;2.75;;
823;SDS011;373;49.342;8.146;2023-04-05T01:14:44;2.50;;;2.17;;
823;SDS011;373;49.342;8.146;2023-04-05T01:17:14;3.00;;;2.70;;
823;SDS011;373;49.342;8.146;2023-04-05T01:19:48;3.20;;;2.67;;
823;SDS011;373;49.342;8.146;2023-04-05T01:22:32;4.43;;;3.03;;
823;SDS011;373;49.342;8.146;2023-04-05T01:25:29;2.92;;;2.72;;
823;SDS011;373;49.342;8.146;2023-04-05T01:28:26;3.17;;;2.60;;
823;SDS011;373;49.342;8.146;2023-04-05T01:31:13;5.13;;;3.03;;
823;SDS011;373;49.342;8.146;2023-04-05T01:33:48;5.38;;;3.63;;
823;SDS011;373;49.342;8.146;2023-04-05T01:36:22;6.00;;;3.30;;
823;SDS011;373;49.342;8.146;2023-04-05T01:38:54;3.28;;;2.97;;
823;SDS011;373;49.342;8.146;2023-04-05T01:41:24;3.92;;;3.13;;
823;SDS011;373;49.342;8.146;2023-04-05T01:43:51;3.63;;;2.80;;
823;SDS011;373;49.342;8.146;2023-04-05T01:46:21;3.25;;;2.95;;
823;SDS011;373;49.342;8.146;2023-04-05T01:48:48;3.75;;;2.78;;
823;SDS011;373;49.342;8.146;2023-04-05T01:51:15;2.58;;;2.17;;
823;SDS011;373;49.342;8.146;2023-04-05T01:53:44;5.00;;;2.80;;
823;SDS011;373;49.342;8.146;2023-04-05T01:56:13;3.30;;;2.70;;
823;SDS011;373;49.342;8.146;2023-04-05T01:58:40;3.30;;;3.00;;
823;SDS011;373;49.342;8.146;2023-04-05T02:01:07;3.40;;;3.08;;
823;SDS011;373;49.342;8.146;2023-04-05T02:03:35;3.80;;;2.80;;
823;SDS011;373;49.342;8.146;2023-04-05T02:06:03;3.35;;;3.05;;
823;SDS011;373;49.342;8.146;2023-04-05T02:08:31;4.35;;;2.97;;
823;SDS011;373;49.342;8.146;2023-04-05T02:10:58;3.67;;;3.10;;
823;SDS011;373;49.342;8.146;2023-04-05T02:13:25;4.35;;;3.13;;
823;SDS011;373;49.342;8.146;2023-04-05T02:15:52;4.35;;;2.70;;
823;SDS011;373;49.342;8.146;2023-04-05T02:18:19;3.45;;;3.15;;
823;SDS011;373;49.342;8.146;2023-04-05T02:21:00;2.97;;;2.38;;
823;SDS011;373;49.342;8.146;2023-04-05T02:23:29;4.68;;;2.40;;
823;SDS011;373;49.342;8.146;2023-04-05T02:25:57;3.00;;;2.63;;
823;SDS011;373;49.342;8.146;2023-04-05T02:28:24;3.33;;;3.00;;
823;SDS011;373;49.342;8.146;2023-04-05T02:30:52;4.10;;;2.63;;
823;SDS011;373;49.342;8.146;2023-04-05T02:33:19;3.28;;;2.67;;
823;SDS011;373;49.342;8.146;2023-04-05T02:35:48;3.00;;;2.67;;
823;SDS011;373;49.342;8.146;2023-04-05T02:38:18;3.47;;;2.50;;
823;SDS011;373;49.342;8.146;2023-04-05T02:40:45;3.88;;;2.80;;
823;SDS011;373;49.342;8.146;2023-04-05T02:43:12;4.03;;;2.58;;
823;SDS011;373;49.342;8.146;2023-04-05T02:45:40;3.97;;;2.83;;
823;SDS011;373;49.342;8.146;2023-04-05T02:48:07;3.40;;;3.10;;
823;SDS011;373;49.342;8.146;2023-04-05T02:50:34;3.75;;;2.58;;
823;SDS011;373;49.342;8.146;2023-04-05T02:53:02;3.88;;;2.95;;
823;SDS011;373;49.342;8.146;2023-04-05T02:55:30;3.72;;;2.95;;
823;SDS011;373;49.342;8.146;2023-04-05T02:57:58;3.70;;;2.70;;
823;SDS011;373;49.342;8.146;2023-04-05T03:00:32;3.08;;;2.50;;
823;SDS011;373;49.342;8.146;2023-04-05T03:03:02;3.03;;;2.55;;
823;SDS011;373;49.342;8.146;2023-04-05T03:05:29;2.97;;;2.67;;
823;SDS011;373;49.342;8.146;2023-04-05T03:07:57;3.70;;;2.88;;
823;SDS011;373;49.342;8.146;2023-04-05T03:10:31;3.47;;;2.75;;
823;SDS011;373;49.342;8.146;2023-04-05T03:13:07;3.55;;;2.75;;
823;SDS011;373;49.342;8.146;2023-04-05T03:15:34;3.63;;;2.72;;
823;SDS011;373;49.342;8.146;2023-04-05T03:18:07;5.85;;;2.92;;
823;SDS011;373;49.342;8.146;2023-04-05T03:20:35;4.05;;;3.17;;
823;SDS011;373;49.342;8.146;2023-04-05T03:23:05;4.65;;;3.42;;
823;SDS011;373;49.342;8.146;2023-04-05T03:25:35;3.88;;;2.60;;
823;SDS011;373;49.342;8.146;2023-04-05T03:28:04;3.67;;;2.90;;
823;SDS011;373;49.342;8.146;2023-04-05T03:30:33;5.03;;;2.63;;
823;SDS011;373;49.342;8.146;2023-04-05T03:33:12;3.90;;;2.65;;
823;SDS011;373;49.342;8.146;2023-04-05T03:35:46;2.83;;;2.55;;
823;SDS011;373;49.342;8.146;2023-04-05T03:38:14;3.17;;;2.53;;
823;SDS011;373;49.342;8.146;2023-04-05T03:40:52;2.75;;;2.25;;
823;SDS011;373;49.342;8.146;2023-04-05T03:43:19;4.53;;;2.60;;
823;SDS011;373;49.342;8.146;2023-04-05T03:45:46;3.35;;;2.83;;
823;SDS011;373;49.342;8.146;2023-04-05T03:48:14;4.18;;;2.72;;
823;SDS011;373;49.342;8.146;2023-04-05T03:50:46;4.38;;;3.10;;
823;SDS011;373;49.342;8.146;2023-04-05T03:53:13;2.97;;;2.67;;
823;SDS011;373;49.342;8.146;2023-04-05T03:55:46;4.28;;;3.05;;
823;SDS011;373;49.342;8.146;2023-04-05T03:58:17;4.50;;;3.30;;
823;SDS011;373;49.342;8.146;2023-04-05T04:00:44;3.47;;;2.75;;
823;SDS011;373;49.342;8.146;2023-04-05T04:03:17;2.75;;;2.55;;
823;SDS011;373;49.342;8.146;2023-04-05T04:05:48;3.85;;;3.00;;
823;SDS011;373;49.342;8.146;2023-04-05T04:08:16;3.55;;;2.40;;
823;SDS011;373;49.342;8.146;2023-04-05T04:10:43;4.32;;;2.95;;
823;SDS011;373;49.342;8.146;2023-04-05T04:13:19;3.45;;;2.85;;
823;SDS011;373;49.342;8.146;2023-04-05T04:15:56;3.58;;;2.50;;
823;SDS011;373;49.342;8.146;2023-04-05T04:18:33;5.18;;;2.90;;
823;SDS011;373;49.342;8.146;2023-04-05T04:21:17;3.40;;;3.10;;
823;SDS011;373;49.342;8.146;2023-04-05T04:24:15;4.68;;;3.33;;
823;SDS011;373;49.342;8.146;2023-04-05T04:27:09;3.70;;;3.10;;
823;SDS011;373;49.342;8.146;2023-04-05T04:29:45;3.85;;;3.30;;
823;SDS011;373;49.342;8.146;2023-04-05T04:32:31;5.88;;;3.15;;
823;SDS011;373;49.342;8.146;2023-04-05T04:45:54;5.05;;;3.05;;
823;SDS011;373;49.342;8.146;2023-04-05T04:48:36;4.55;;;3.00;;
823;SDS011;373;49.342;8.146;2023-04-05T04:51:12;6.13;;;3.08;;
823;SDS011;373;49.342;8.146;2023-04-05T04:53:39;3.40;;;2.80;;
823;SDS011;373;49.342;8.146;2023-04-05T04:56:06;5.70;;;3.72;;
823;SDS011;373;49.342;8.146;2023-04-05T04:58:34;7.15;;;3.40;;
823;SDS011;373;49.342;8.146;2023-04-05T05:01:07;4.50;;;3.28;;
823;SDS011;373;49.342;8.146;2023-04-05T05:03:35;3.17;;;2.80;;
823;SDS011;373;49.342;8.146;2023-04-05T05:06:03;3.45;;;3.15;;
823;SDS011;373;49.342;8.146;2023-04-05T05:08:32;4.72;;;3.20;;
823;SDS011;373;49.342;8.146;2023-04-05T05:10:59;3.47;;;2.97;;
823;SDS011;373;49.342;8.146;2023-04-05T05:13:26;3.13;;;2.80;;
823;SDS011;373;49.342;8.146;2023-04-05T05:15:54;2.85;;;2.65;;
823;SDS011;373;49.342;8.146;2023-04-05T05:18:25;3.30;;;3.00;;
823;SDS011;373;49.342;8.146;2023-04-05T05:20:52;4.18;;;3.53;;
823;SDS011;373;49.342;8.146;2023-04-05T05:23:19;5.10;;;3.42;;
823;SDS011;373;49.342;8.146;2023-04-05T05:25:47;3.70;;;2.65;;
823;SDS011;373;49.342;8.146;2023-04-05T05:28:14;5.90;;;2.92;;
823;SDS011;373;49.342;8.146;2023-04-05T05:30:41;5.00;;;3.42;;
823;SDS011;373;49.342;8.146;2023-04-05T05:33:09;4.00;;;3.58;;
823;SDS011;373;49.342;8.146;2023-04-05T05:35:37;3.63;;;3.28;;
823;SDS011;373;49.342;8.146;2023-04-05T05:38:05;4.68;;;3.17;;
823;SDS011;373;49.342;8.146;2023-04-05T05:40:32;5.30;;;3.15;;
823;SDS011;373;49.342;8.146;2023-04-05T05:42:59;4.05;;;2.70;;
823;SDS011;373;49.342;8.146;2023-04-05T05:45:26;4.25;;;2.47;;
823;SDS011;373;49.342;8.146;2023-04-05T05:47:54;4.95;;;3.03;;
823;SDS011;373;49.342;8.146;2023-04-05T05:50:21;3.03;;;2.58;;
823;SDS011;373;49.342;8.146;2023-04-05T05:52:50;3.83;;;3.10;;
823;SDS011;373;49.342;8.146;2023-04-05T05:55:18;3.05;;;2.65;;
823;SDS011;373;49.342;8.146;2023-04-05T05:57:45;3.70;;;3.08;;
823;SDS011;373;49.342;8.146;2023-04-05T06:00:13;4.75;;;3.38;;
823;SDS011;373;49.342;8.146;2023-04-05T06:02:41;4.35;;;2.95;;
823;SDS011;373;49.342;8.146;2023-04-05T06:05:08;4.60;;;3.40;;
823;SDS011;373;49.342;8.146;2023-04-05T06:07:35;3.05;;;2.85;;
823;SDS011;373;49.342;8.146;2023-04-05T06:10:04;3.38;;;2.67;;
823;SDS011;373;49.342;8.146;2023-04-05T06:12:32;4.10;;;2.70;;
823;SDS011;373;49.342;8.146;2023-04-05T06:14:59;4.85;;;2.55;;
823;SDS011;373;49.342;8.146;2023-04-05T06:17:27;3.10;;;2.65;;
823;SDS011;373;49.342;8.146;2023-04-05T06:19:54;3.58;;;2.83;;
823;SDS011;373;49.342;8.146;2023-04-05T06:22:21;3.00;;;2.75;;
823;SDS011;373;49.342;8.146;2023-04-05T06:24:49;3.83;;;2.70;;
823;SDS011;373;49.342;8.146;2023-04-05T06:27:18;3.67;;;2.60;;
823;SDS011;373;49.342;8.146;2023-04-05T06:29:58;2.50;;;2.30;;
823;SDS011;373;49.342;8.146;2023-04-05T06:33:39;3.55;;;3.05;;
823;SDS011;373;49.342;8.146;2023-04-05T06:49:40;3.38;;;2.78;;
823;SDS011;373;49.342;8.146;2023-04-05T06:52:07;3.10;;;2.70;;
823;SDS011;373;49.342;8.146;2023-04-05T06:54:36;2.65;;;2.45;;
823;SDS011;373;49.342;8.146;2023-04-05T06:57:03;3.25;;;2.70;;
823;SDS011;373;49.342;8.146;2023-04-05T06:59:30;3.83;;;2.85;;
823;SDS011;373;49.342;8.146;2023-04-05T07:01:57;3.65;;;2.70;;
823;SDS011;373;49.342;8.146;2023-04-05T07:04:24;4.22;;;3.10;;
823;SDS011;373;49.342;8.146;2023-04-05T07:06:54;3.88;;;3.13;;
823;SDS011;373;49.342;8.146;2023-04-05T07:09:23;3.80;;;2.72;;
823;SDS011;373;49.342;8.146;2023-04-05T07:11:50;3.40;;;2.92;;
823;SDS011;373;49.342;8.146;2023-04-05T07:14:17;3.30;;;3.00;;
823;SDS011;373;49.342;8.146;2023-04-05T07:16:44;3.17;;;2.45;;
823;SDS011;373;49.342;8.146;2023-04-05T07:19:11;3.40;;;3.08;;
823;SDS011;373;49.342;8.146;2023-04-05T07:21:39;3.88;;;2.85;;
823;SDS011;373;49.342;8.146;2023-04-05T07:24:08;2.85;;;2.55;;
823;SDS011;373;49.342;8.146;2023-04-05T07:26:35;3.60;;;2.78;;
823;SDS011;373;49.342;8.146;2023-04-05T07:29:03;3.90;;;3.03;;
823;SDS011;373;49.342;8.146;2023-04-05T07:31:30;3.65;;;3.25;;
823;SDS011;373;49.342;8.146;2023-04-05T07:33:58;3.10;;;2.80;;
823;SDS011;373;49.342;8.146;2023-04-05T07:36:25;3.75;;;3.10;;
823;SDS011;373;49.342;8.146;2023-04-05T07:38:54;4.22;;;2.88;;
823;SDS011;373;49.342;8.146;2023-04-05T07:41:23;3.13;;;2.80;;
823;SDS011;373;49.342;8.146;2023-04-05T07:43:55;5.07;;;3.28;;
823;SDS011;373;49.342;8.146;2023-04-05T07:46:22;3.05;;;2.72;;
823;SDS011;373;49.342;8.146;2023-04-05T07:48:49;3.72;;;3.22;;
823;SDS011;373;49.342;8.146;2023-04-05T07:51:16;5.45;;;2.80;;
823;SDS011;373;49.342;8.146;2023-04-05T07:53:43;3.53;;;2.95;;
823;SDS011;373;49.342;8.146;2023-04-05T07:56:10;5.47;;;3.45;;
823;SDS011;373;49.342;8.146;2023-04-05T07:58:39;4.75;;;3.00;;
823;SDS011;373;49.342;8.146;2023-04-05T08:01:07;4.03;;;2.72;;
823;SDS011;373;49.342;8.146;2023-04-05T08:03:35;5.28;;;3.08;;
823;SDS011;373;49.342;8.146;2023-04-05T08:06:09;4.97;;;3.10;;
823;SDS011;373;49.342;8.146;2023-04-05T08:08:37;5.18;;;2.80;;
823;SDS011;373;49.342;8.146;2023-04-05T08:11:05;3.67;;;2.60;;
823;SDS011;373;49.342;8.146;2023-04-05T08:13:32;3.60;;;3.08;;
823;SDS011;373;49.342;8.146;2023-04-05T08:16:00;3.90;;;3.10;;
823;SDS011;373;49.342;8.146;2023-04-05T08:18:27;6.40;;;3.03;;
823;SDS011;373;49.342;8.146;2023-04-05T08:20:55;3.80;;;3.47;;
823;SDS011;373;49.342;8.146;2023-04-05T08:23:23;3.20;;;2.90;;
823;SDS011;373;49.342;8.146;2023-04-05T08:25:51;4.32;;;2.95;;
823;SDS011;373;49.342;8.146;2023-04-05T08:28:18;2.88;;;2.67;;
823;SDS011;373;49.342;8.146;2023-04-05T08:30:45;4.80;;;3.25;;
823;SDS011;373;49.342;8.146;2023-04-05T08:33:14;4.93;;;3.20;;
823;SDS011;373;49.342;8.146;2023-04-05T08:35:41;3.53;;;3.10;;
823;SDS011;373;49.342;8.146;2023-04-05T08:38:08;4.72;;;3.10;;
823;SDS011;373;49.342;8.146;2023-04-05T08:40:38;3.85;;;3.10;;
823;SDS011;373;49.342;8.146;2023-04-05T08:43:08;4.78;;;3.55;;
823;SDS011;373;49.342;8.146;2023-04-05T08:45:41;4.75;;;3.50;;
823;SDS011;373;49.342;8.146;2023-04-05T08:48:11;3.90;;;3.00;;
823;SDS011;373;49.342;8.146;2023-04-05T08:50:39;3.42;;;3.10;;
823;SDS011;373;49.342;8.146;2023-04-05T08:53:06;3.80;;;3.50;;
823;SDS011;373;49.342;8.146;2023-04-05T08:55:35;3.20;;;2.90;;
823;SDS011;373;49.342;8.146;2023-04-05T08:58:02;4.82;;;3.00;;
823;SDS011;373;49.342;8.146;2023-04-05T09:00:36;4.18;;;2.97;;
823;SDS011;373;49.342;8.146;2023-04-05T09:03:04;3.60;;;3.25;;
823;SDS011;373;49.342;8.146;2023-04-05T09:05:32;4.35;;;3.22;;
823;SDS011;373;49.342;8.146;2023-04-05T09:08:03;3.60;;;3.30;;
823;SDS011;373;49.342;8.146;2023-04-05T09:10:31;5.57;;;3.00;;
823;SDS011;373;49.342;8.146;2023-04-05T09:12:59;5.25;;;3.10;;
823;SDS011;373;49.342;8.146;2023-04-05T09:15:27;3.38;;;3.08;;
823;SDS011;373;49.342;8.146;2023-04-05T09:17:55;4.30;;;2.60;;
823;SDS011;373;49.342;8.146;2023-04-05T09:20:23;3.25;;;2.95;;
823;SDS011;373;49.342;8.146;2023-04-05T09:22:50;3.53;;;2.83;;
823;SDS011;373;49.342;8.146;2023-04-05T09:28:13;3.35;;;3.05;;
823;SDS011;373;49.342;8.146;2023-04-05T09:30:44;3.83;;;2.85;;
823;SDS011;373;49.342;8.146;2023-04-05T09:33:14;3.67;;;3.10;;
823;SDS011;373;49.342;8.146;2023-04-05T09:35:44;3.45;;;3.15;;
823;SDS011;373;49.342;8.146;2023-04-05T09:38:16;4.15;;;3.50;;
823;SDS011;373;49.342;8.146;2023-04-05T09:40:53;3.58;;;3.08;;
823;SDS011;373;49.342;8.146;2023-04-05T09:43:39;3.55;;;3.25;;
823;SDS011;373;49.342;8.146;2023-04-05T09:46:25;3.83;;;2.60;;
823;SDS011;373;49.342;8.146;2023-04-05T09:48:55;3.88;;;3.30;;
823;SDS011;373;49.342;8.146;2023-04-05T09:51:32;3.15;;;2.88;;
823;SDS011;373;49.342;8.146;2023-04-05T09:56:54;3.53;;;3.22;;
823;SDS011;373;49.342;8.146;2023-04-05T09:59:26;3.03;;;2.75;;
823;SDS011;373;49.342;8.146;2023-04-05T10:01:55;3.60;;;3.30;;
823;SDS011;373;49.342;8.146;2023-04-05T10:04:23;3.65;;;3.35;;
823;SDS011;373;49.342;8.146;2023-04-05T10:06:54;4.18;;;3.55;;
823;SDS011;373;49.342;8.146;2023-04-05T10:09:22;3.63;;;3.30;;
823;SDS011;373;49.342;8.146;2023-04-05T10:11:55;3.42;;;3.00;;
823;SDS011;373;49.342;8.146;2023-04-05T10:14:24;4.93;;;3.53;;
823;SDS011;373;49.342;8.146;2023-04-05T10:16:52;6.53;;;3.65;;
823;SDS011;373;49.342;8.146;2023-04-05T10:19:26;4.10;;;3.70;;
823;SDS011;373;49.342;8.146;2023-04-05T10:22:02;3.47;;;3.17;;
823;SDS011;373;49.342;8.146;2023-04-05T10:24:44;4.07;;;3.67;;
823;SDS011;373;49.342;8.146;2023-04-05T10:27:20;5.10;;;3.60;;
823;SDS011;373;49.342;8.146;2023-04-05T10:29:59;3.60;;;3.30;;
823;SDS011;373;49.342;8.146;2023-04-05T10:32:33;4.38;;;3.83;;
823;SDS011;373;49.342;8.146;2023-04-05T10:35:09;3.42;;;3.13;;
823;SDS011;373;49.342;8.146;2023-04-05T10:37:45;3.30;;;3.00;;
823;SDS011;373;49.342;8.146;2023-04-05T10:40:23;4.70;;;3.00;;
823;SDS011;373;49.342;8.146;2023-04-05T10:42:55;3.22;;;2.92;;
823;SDS011;373;49.342;8.146;2023-04-05T10:45:24;3.30;;;2.88;;
823;SDS011;373;49.342;8.146;2023-04-05T10:47:53;4.07;;;3.35;;
823;SDS011;373;49.342;8.146;2023-04-05T10:50:26;4.05;;;3.67;;
823;SDS011;373;49.342;8.146;2023-04-05T10:52:53;4.03;;;3.47;;
823;SDS011;373;49.342;8.146;2023-04-05T10:55:23;3.90;;;3.60;;
823;SDS011;373;49.342;8.146;2023-04-05T10:57:51;3.97;;;3.45;;
823;SDS011;373;49.342;8.146;2023-04-05T11:00:20;4.88;;;3.25;;
823;SDS011;373;49.342;8.146;2023-04-05T11:02:53;4.22;;;3.35;;
823;SDS011;373;49.342;8.146;2023-04-05T11:05:27;2.92;;;2.60;;
823;SDS011;373;49.342;8.146;2023-04-05T11:07:58;4.32;;;3.30;;
823;SDS011;373;49.342;8.146;2023-04-05T11:10:28;4.40;;;3.47;;
823;SDS011;373;49.342;8.146;2023-04-05T11:13:03;3.88;;;3.58;;
823;SDS011;373;49.342;8.146;2023-04-05T11:15:31;3.20;;;2.72;;
823;SDS011;373;49.342;8.146;2023-04-05T11:18:05;4.57;;;3.30;;
823;SDS011;373;49.342;8.146;2023-04-05T11:20:45;3.45;;;3.10;;
823;SDS011;373;49.342;8.146;2023-04-05T11:23:24;3.30;;;3.00;;
823;SDS011;373;49.342;8.146;2023-04-05T11:26:05;3.95;;;3.13;;
823;SDS011;373;49.342;8.146;2023-04-05T11:28:57;5.43;;;2.70;;
823;SDS011;373;49.342;8.146;2023-04-05T11:31:31;3.80;;;3.40;;
823;SDS011;373;49.342;8.146;2023-04-05T11:34:16;4.78;;;3.47;;
823;SDS011;373;49.342;8.146;2023-04-05T11:36:58;3.10;;;2.90;;
823;SDS011;373;49.342;8.146;2023-04-05T11:39:28;3.55;;;3.00;;
823;SDS011;373;49.342;8.146;2023-04-05T11:41:59;3.50;;;3.03;;
823;SDS011;373;49.342;8.146;2023-04-05T11:44:28;3.28;;;2.83;;
823;SDS011;373;49.342;8.146;2023-04-05T11:47:20;3.10;;;2.90;;
823;SDS011;373;49.342;8.146;2023-04-05T11:49:51;3.58;;;2.95;;
823;SDS011;373;49.342;8.146;2023-04-05T11:52:32;4.40;;;3.25;;
823;SDS011;373;49.342;8.146;2023-04-05T11:55:10;3.30;;;3.00;;
823;SDS011;373;49.342;8.146;2023-04-05T11:57:37;2.90;;;2.70;;
823;SDS011;373;49.342;8.146;2023-04-05T12:00:25;3.47;;;3.17;;
823;SDS011;373;49.342;8.146;2023-04-05T12:03:19;6.43;;;2.78;;
823;SDS011;373;49.342;8.146;2023-04-05T12:06:15;2.97;;;2.65;;
823;SDS011;373;49.342;8.146;2023-04-05T12:08:59;3.10;;;2.80;;
823;SDS011;373;49.342;8.146;2023-04-05T12:12:00;3.30;;;3.00;;
823;SDS011;373;49.342;8.146;2023-04-05T12:17:40;3.45;;;2.60;;
823;SDS011;373;49.342;8.146;2023-04-05T12:20:13;3.47;;;3.00;;
823;SDS011;373;49.342;8.146;2023-04-05T12:22:56;4.22;;;3.47;;
823;SDS011;373;49.342;8.146;2023-04-05T12:25:28;4.32;;;3.72;;
823;SDS011;373;49.342;8.146;2023-04-05T12:28:05;3.97;;;3.67;;
823;SDS011;373;49.342;8.146;2023-04-05T12:34:27;3.97;;;3.45;;
823;SDS011;373;49.342;8.146;2023-04-05T12:37:06;4.55;;;3.53;;
823;SDS011;373;49.342;8.146;2023-04-05T12:47:07;3.20;;;2.90;;
823;SDS011;373;49.342;8.146;2023-04-05T12:51:12;3.28;;;2.97;;
823;SDS011;373;49.342;8.146;2023-04-05T12:57:02;4.65;;;3.70;;
823;SDS011;373;49.342;8.146;2023-04-05T12:59:30;4.88;;;3.85;;
823;SDS011;373;49.342;8.146;2023-04-05T13:01:58;3.63;;;3.33;;
823;SDS011;373;49.342;8.146;2023-04-05T13:04:25;4.40;;;4.00;;
823;SDS011;373;49.342;8.146;2023-04-05T13:06:52;5.45;;;4.05;;
823;SDS011;373;49.342;8.146;2023-04-05T13:09:19;4.45;;;4.05;;
823;SDS011;373;49.342;8.146;2023-04-05T13:11:46;4.88;;;4.38;;
823;SDS011;373;49.342;8.146;2023-04-05T13:14:13;4.45;;;4.05;;
823;SDS011;373;49.342;8.146;2023-04-05T13:16:43;5.18;;;3.83;;
823;SDS011;373;49.342;8.146;2023-04-05T13:19:10;5.28;;;4.00;;
823;SDS011;373;49.342;8.146;2023-04-05T13:21:37;4.13;;;3.30;;
823;SDS011;373;49.342;8.146;2023-04-05T13:24:04;4.05;;;3.67;;
823;SDS011;373;49.342;8.146;2023-04-05T13:26:31;3.83;;;3.53;;
823;SDS011;373;49.342;8.146;2023-04-05T13:28:59;3.97;;;3.67;;
823;SDS011;373;49.342;8.146;2023-04-05T13:31:27;3.70;;;3.22;;
823;SDS011;373;49.342;8.146;2023-04-05T13:33:56;3.85;;;3.00;;
823;SDS011;373;49.342;8.146;2023-04-05T13:36:23;4.18;;;3.78;;
823;SDS011;373;49.342;8.146;2023-04-05T13:38:50;3.25;;;3.03;;
823;SDS011;373;49.342;8.146;2023-04-05T13:41:17;3.67;;;3.33;;
823;SDS011;373;49.342;8.146;2023-04-05T13:43:44;3.90;;;3.40;;
823;SDS011;373;49.342;8.146;2023-04-05T13:46:11;4.80;;;3.50;;
823;SDS011;373;49.342;8.146;2023-04-05T13:48:38;4.75;;;4.35;;
823;SDS011;373;49.342;8.146;2023-04-05T13:51:06;4.97;;;3.70;;
823;SDS011;373;49.342;8.146;2023-04-05T13:53:33;4.82;;;3.97;;
823;SDS011;373;49.342;8.146;2023-04-05T13:56:00;4.78;;;3.97;;
823;SDS011;373;49.342;8.146;2023-04-05T13:58:27;3.72;;;3.42;;
823;SDS011;373;49.342;8.146;2023-04-05T14:00:54;5.97;;;4.32;;
823;SDS011;373;49.342;8.146;2023-04-05T14:03:22;4.22;;;3.63;;
823;SDS011;373;49.342;8.146;2023-04-05T14:05:50;3.75;;;3.45;;
823;SDS011;373;49.342;8.146;2023-04-05T14:08:18;4.15;;;3.15;;
823;SDS011;373;49.342;8.146;2023-04-05T14:10:45;3.88;;;3.42;;
823;SDS011;373;49.342;8.146;2023-04-05T14:13:12;4.20;;;3.58;;
823;SDS011;373;49.342;8.146;2023-04-05T14:15:40;4.05;;;3.70;;
823;SDS011;373;49.342;8.146;2023-04-05T14:18:08;4.13;;;3.72;;
823;SDS011;373;49.342;8.146;2023-04-05T14:20:35;5.70;;;3.75;;
823;SDS011;373;49.342;8.146;2023-04-05T14:23:02;4.05;;;3.42;;
823;SDS011;373;49.342;8.146;2023-04-05T14:25:31;3.83;;;3.53;;
823;SDS011;373;49.342;8.146;2023-04-05T14:27:58;6.10;;;3.67;;
823;SDS011;373;49.342;8.146;2023-04-05T14:30:25;3.97;;;3.45;;
823;SDS011;373;49.342;8.146;2023-04-05T14:32:53;3.35;;;3.05;;
823;SDS011;373;49.342;8.146;2023-04-05T14:35:20;3.85;;;3.55;;
823;SDS011;373;49.342;8.146;2023-04-05T14:37:47;4.30;;;3.85;;
823;SDS011;373;49.342;8.146;2023-04-05T14:40:14;4.05;;;3.75;;
823;SDS011;373;49.342;8.146;2023-04-05T14:42:43;4.50;;;3.28;;
823;SDS011;373;49.342;8.146;2023-04-05T14:45:10;4.63;;;3.45;;
823;SDS011;373;49.342;8.146;2023-04-05T14:47:37;3.88;;;3.55;;
823;SDS011;373;49.342;8.146;2023-04-05T14:50:05;6.20;;;3.30;;
823;SDS011;373;49.342;8.146;2023-04-05T14:52:33;4.30;;;3.90;;
823;SDS011;373;49.342;8.146;2023-04-05T14:55:00;3.50;;;3.20;;
823;SDS011;373;49.342;8.146;2023-04-05T14:57:27;3.75;;;3.30;;
823;SDS011;373;49.342;8.146;2023-04-05T14:59:55;4.68;;;3.88;;
823;SDS011;373;49.342;8.146;2023-04-05T15:02:23;4.40;;;3.67;;
823;SDS011;373;49.342;8.146;2023-04-05T15:04:50;4.00;;;3.70;;
823;SDS011;373;49.342;8.146;2023-04-05T15:07:18;3.88;;;3.53;;
823;SDS011;373;49.342;8.146;2023-04-05T15:09:45;5.40;;;3.08;;
823;SDS011;373;49.342;8.146;2023-04-05T15:12:13;3.83;;;3.03;;
823;SDS011;373;49.342;8.146;2023-04-05T15:14:40;3.92;;;2.97;;
823;SDS011;373;49.342;8.146;2023-04-05T15:17:08;4.25;;;3.33;;
823;SDS011;373;49.342;8.146;2023-04-05T15:19:35;3.72;;;3.00;;
823;SDS011;373;49.342;8.146;2023-04-05T15:22:03;3.30;;;3.03;;
823;SDS011;373;49.342;8.146;2023-04-05T15:24:30;4.05;;;3.65;;
823;SDS011;373;49.342;8.146;2023-04-05T15:26:58;3.83;;;2.92;;
823;SDS011;373;49.342;8.146;2023-04-05T15:29:30;3.97;;;3.67;;
823;SDS011;373;49.342;8.146;2023-04-05T15:31:58;3.42;;;3.13;;
823;SDS011;373;49.342;8.146;2023-04-05T15:34:27;3.17;;;2.50;;
823;SDS011;373;49.342;8.146;2023-04-05T15:36:54;3.35;;;2.88;;
823;SDS011;373;49.342;8.146;2023-04-05T15:39:22;3.88;;;3.28;;
823;SDS011;373;49.342;8.146;2023-04-05T15:41:49;4.85;;;3.70;;
823;SDS011;373;49.342;8.146;2023-04-05T15:44:16;3.25;;;2.97;;
823;SDS011;373;49.342;8.146;2023-04-05T15:46:43;3.20;;;3.00;;
823;SDS011;373;49.342;8.146;2023-04-05T15:49:11;3.60;;;3.30;;
823;SDS011;373;49.342;8.146;2023-04-05T15:51:39;3.45;;;3.10;;
823;SDS011;373;49.342;8.146;2023-04-05T15:54:06;3.55;;;2.92;;
823;SDS011;373;49.342;8.146;2023-04-05T15:56:34;3.88;;;3.28;;
823;SDS011;373;49.342;8.146;2023-04-05T15:59:02;3.28;;;2.97;;
823;SDS011;373;49.342;8.146;2023-04-05T16:01:29;4.55;;;3.47;;
823;SDS011;373;49.342;8.146;2023-04-05T16:03:56;3.85;;;3.45;;
823;SDS011;373;49.342;8.146;2023-04-05T16:06:23;3.63;;;3.33;;
823;SDS011;373;49.342;8.146;2023-04-05T16:08:53;4.82;;;3.45;;
823;SDS011;373;49.342;8.146;2023-04-05T16:11:21;3.28;;;2.97;;
823;SDS011;373;49.342;8.146;2023-04-05T16:13:48;3.63;;;3.10;;
823;SDS011;373;49.342;8.146;2023-04-05T16:16:15;3.67;;;3.28;;
823;SDS011;373;49.342;8.146;2023-04-05T16:18:43;3.30;;;3.00;;
823;SDS011;373;49.342;8.146;2023-04-05T16:21:10;3.20;;;2.90;;
823;SDS011;373;49.342;8.146;2023-04-05T16:23:38;3.60;;;3.15;;
823;SDS011;373;49.342;8.146;2023-04-05T16:26:07;4.78;;;3.28;;
823;SDS011;373;49.342;8.146;2023-04-05T16:28:34;4.47;;;3.38;;
823;SDS011;373;49.342;8.146;2023-04-05T16:31:01;3.75;;;3.35;;
823;SDS011;373;49.342;8.146;2023-04-05T16:33:28;4.47;;;3.30;;
823;SDS011;373;49.342;8.146;2023-04-05T16:35:56;4.40;;;3.25;;
823;SDS011;373;49.342;8.146;2023-04-05T16:38:23;3.47;;;3.13;;
823;SDS011;373;49.342;8.146;2023-04-05T16:40:50;3.97;;;2.97;;
823;SDS011;373;49.342;8.146;2023-04-05T16:43:19;3.55;;;3.17;;
823;SDS011;373;49.342;8.146;2023-04-05T16:45:46;3.00;;;2.70;;
823;SDS011;373;49.342;8.146;2023-04-05T16:48:13;3.65;;;3.10;;
823;SDS011;373;49.342;8.146;2023-04-05T16:50:40;3.67;;;3.10;;
823;SDS011;373;49.342;8.146;2023-04-05T16:53:08;3.92;;;3.30;;